Time;durP1;ratioP1;P1;durP2;ratioP2;P2;SDS_P1;SDS_P2;PMS_P1;PMS_P2;Temp;Humidity;BMP_temperature;BMP_pressure;BME280_temperature;BME280_humidity;BME280_pressure;Samples;Min_cycle;Max_cycle;Signal;HPM_P1;HPM_P2
2023/01/01 00:02:25;;;;;;;11.20;6.80;;;12.80;99.90;;;;;;5021177;28;20295;-86
2023/01/01 00:04:59;;;;;;;12.60;6.63;;;12.90;99.90;;;;;;5037726;28;20209;-90
2023/01/01 00:07:26;;;;;;;11.47;6.30;;;13.00;99.90;;;;;;5037421;28;20287;-96
2023/01/01 00:12:38;;;;;;;9.00;5.30;;;12.90;99.90;;;;;;5050436;28;20199;-96
2023/01/01 00:15:06;;;;;;;10.13;5.40;;;12.90;99.90;;;;;;5034592;28;20230;-96
2023/01/01 00:17:33;;;;;;;9.00;5.40;;;12.90;99.90;;;;;;5033601;28;20633;-96
2023/01/01 00:20:00;;;;;;;9.53;5.23;;;12.90;99.90;;;;;;5050036;28;20215;-96
2023/01/01 00:22:27;;;;;;;9.40;5.30;;;13.00;99.90;;;;;;5033366;28;20253;-90
2023/01/01 00:25:14;;;;;;;10.03;5.80;;;13.00;99.90;;;;;;5033315;28;20202;-87
2023/01/01 00:27:41;;;;;;;9.83;5.63;;;13.00;99.90;;;;;;5033344;28;20253;-87
2023/01/01 00:30:09;;;;;;;9.27;5.53;;;12.90;99.90;;;;;;5034341;28;20204;-85
2023/01/01 00:32:36;;;;;;;9.57;5.37;;;12.90;99.90;;;;;;5049702;28;20757;-93
2023/01/01 00:35:04;;;;;;;11.00;5.40;;;12.90;99.90;;;;;;5043506;28;20199;-86
2023/01/01 00:37:31;;;;;;;10.77;5.70;;;12.90;99.90;;;;;;5046075;28;20246;-86
2023/01/01 00:39:58;;;;;;;9.30;5.50;;;12.90;99.90;;;;;;5030703;28;20270;-83
2023/01/01 00:42:24;;;;;;;9.77;5.17;;;12.90;99.90;;;;;;5013003;28;20247;-89
2023/01/01 00:44:51;;;;;;;13.37;5.73;;;12.90;99.90;;;;;;4996995;28;20558;-86
2023/01/01 00:47:18;;;;;;;9.50;5.20;;;12.90;99.90;;;;;;5029725;28;20642;-93
2023/01/01 00:49:45;;;;;;;11.40;5.70;;;12.90;99.90;;;;;;5014163;28;20247;-88
2023/01/01 00:52:12;;;;;;;10.50;5.67;;;12.80;99.90;;;;;;5029894;28;20226;-95
2023/01/01 00:54:39;;;;;;;8.80;5.07;;;12.80;99.90;;;;;;5029709;28;20291;-96
2023/01/01 00:57:06;;;;;;;11.30;5.30;;;12.80;99.90;;;;;;5014786;28;20189;-95
2023/01/01 00:59:33;;;;;;;11.03;5.50;;;12.80;99.90;;;;;;5028647;28;20220;-91
2023/01/01 01:02:00;;;;;;;10.90;5.20;;;12.80;99.90;;;;;;5031987;28;20252;-94
2023/01/01 01:04:27;;;;;;;9.77;5.40;;;12.70;99.90;;;;;;5026538;28;20287;-94
2023/01/01 01:06:54;;;;;;;9.33;5.00;;;12.70;99.90;;;;;;5014372;28;20204;-86
2023/01/01 01:09:21;;;;;;;11.30;5.40;;;12.80;99.90;;;;;;5019140;28;20204;-76
2023/01/01 01:11:48;;;;;;;10.30;5.60;;;12.80;99.90;;;;;;5016579;28;20192;-83
2023/01/01 01:14:15;;;;;;;10.80;5.53;;;12.70;99.90;;;;;;5000793;28;20258;-90
2023/01/01 01:16:41;;;;;;;10.40;5.27;;;12.70;99.90;;;;;;5016310;28;20195;-88
2023/01/01 01:19:14;;;;;;;8.50;4.87;;;12.70;99.90;;;;;;5016141;28;20255;-87
2023/01/01 01:21:41;;;;;;;8.80;5.07;;;12.70;99.90;;;;;;5016635;28;20642;-89
2023/01/01 01:24:09;;;;;;;8.13;5.00;;;12.70;99.90;;;;;;5016528;28;20204;-86
2023/01/01 01:26:36;;;;;;;10.13;5.43;;;12.70;99.90;;;;;;5016272;28;20197;-87
2023/01/01 01:29:03;;;;;;;9.20;5.37;;;12.80;99.90;;;;;;5016254;28;20196;-88
2023/01/01 01:31:32;;;;;;;10.63;4.87;;;12.80;99.90;;;;;;5017851;28;20230;-89
2023/01/01 01:33:59;;;;;;;8.60;5.20;;;12.80;99.90;;;;;;5016487;28;20196;-89
2023/01/01 01:36:27;;;;;;;10.50;5.40;;;12.80;99.90;;;;;;5016166;28;20203;-93
2023/01/01 01:38:55;;;;;;;9.63;4.93;;;12.80;99.90;;;;;;5015258;28;20310;-79
2023/01/01 01:41:24;;;;;;;8.97;5.10;;;12.80;99.90;;;;;;5016381;28;20201;-93
2023/01/01 01:44:06;;;;;;;9.20;5.20;;;12.80;99.90;;;;;;5016324;28;20200;-85
2023/01/01 01:46:40;;;;;;;10.10;5.23;;;12.80;99.90;;;;;;5016546;28;20237;-82
2023/01/01 01:49:18;;;;;;;10.23;5.00;;;12.80;99.90;;;;;;5017445;28;20190;-96
2023/01/01 01:51:46;;;;;;;9.20;5.40;;;12.80;99.90;;;;;;5019653;28;20192;-86
2023/01/01 01:54:22;;;;;;;9.23;5.50;;;12.80;99.90;;;;;;5015512;28;20208;-86
2023/01/01 01:57:11;;;;;;;9.23;5.43;;;12.80;99.90;;;;;;5015635;28;20224;-83
2023/01/01 01:59:46;;;;;;;9.90;4.90;;;12.90;99.90;;;;;;5023523;28;20311;-81
2023/01/01 02:02:37;;;;;;;9.57;5.03;;;12.90;99.90;;;;;;5023254;28;20289;-81
2023/01/01 02:05:05;;;;;;;9.87;5.90;;;12.90;99.90;;;;;;5027968;28;20242;-80
2023/01/01 02:07:34;;;;;;;10.87;5.80;;;12.90;99.90;;;;;;5039055;28;20231;-85
2023/01/01 02:10:02;;;;;;;9.90;5.13;;;12.80;99.90;;;;;;5023517;28;20208;-81
2023/01/01 02:12:29;;;;;;;10.30;5.50;;;12.90;99.90;;;;;;5025382;28;20291;-80
2023/01/01 02:14:56;;;;;;;9.80;5.40;;;12.90;99.90;;;;;;5015392;28;20202;-76
2023/01/01 02:17:38;;;;;;;9.00;5.23;;;12.90;99.90;;;;;;5028116;28;20288;-80
2023/01/01 02:20:23;;;;;;;12.17;5.10;;;12.90;99.90;;;;;;5019831;28;20223;-77
2023/01/01 02:23:25;;;;;;;9.07;5.27;;;12.90;99.90;;;;;;5018294;28;20579;-78
2023/01/01 02:26:37;;;;;;;8.30;4.77;;;13.00;99.90;;;;;;5020617;28;20234;-73
2023/01/01 02:29:41;;;;;;;9.70;4.97;;;12.90;99.90;;;;;;5017737;28;20276;-80
2023/01/01 02:32:26;;;;;;;8.50;4.70;;;13.00;99.90;;;;;;5029421;28;20223;-79
2023/01/01 02:37:59;;;;;;;8.03;4.80;;;13.10;99.90;;;;;;5017069;28;20235;-75
2023/01/01 02:40:27;;;;;;;9.63;5.03;;;13.10;99.90;;;;;;5013868;28;20727;-80
2023/01/01 02:42:55;;;;;;;7.80;4.63;;;13.10;99.90;;;;;;5013983;28;20192;-81
2023/01/01 02:45:22;;;;;;;8.43;4.73;;;13.10;99.90;;;;;;5020241;28;20276;-83
2023/01/01 02:47:49;;;;;;;8.53;4.53;;;13.10;99.90;;;;;;5013894;28;20207;-80
2023/01/01 02:50:22;;;;;;;7.87;4.30;;;13.10;99.90;;;;;;5014692;28;20242;-80
2023/01/01 02:53:07;;;;;;;9.27;4.37;;;13.20;99.90;;;;;;5028298;28;20208;-84
2023/01/01 02:56:03;;;;;;;8.43;4.60;;;13.20;99.90;;;;;;5020498;28;20239;-82
2023/01/01 03:01:35;;;;;;;8.77;4.57;;;13.20;99.90;;;;;;5015417;28;20597;-86
2023/01/01 03:04:30;;;;;;;8.30;4.67;;;13.20;99.90;;;;;;5014022;28;20258;-85
2023/01/01 03:06:57;;;;;;;7.80;4.73;;;13.30;99.90;;;;;;5014462;28;20196;-85
2023/01/01 03:09:30;;;;;;;8.00;4.37;;;13.20;99.90;;;;;;5013800;28;20257;-86
2023/01/01 03:12:08;;;;;;;10.90;5.00;;;13.20;99.90;;;;;;5014344;28;20200;-85
2023/01/01 03:14:38;;;;;;;7.77;4.57;;;13.20;99.90;;;;;;5014658;28;20252;-82
2023/01/01 03:17:20;;;;;;;8.10;4.50;;;13.20;99.90;;;;;;5014664;28;20247;-78
2023/01/01 03:19:48;;;;;;;9.40;4.40;;;13.30;99.90;;;;;;5013779;28;20255;-86
2023/01/01 03:22:17;;;;;;;7.63;4.53;;;13.30;99.90;;;;;;5014615;28;20712;-79
2023/01/01 03:24:51;;;;;;;8.47;4.17;;;13.30;99.90;;;;;;5013069;28;20255;-85
2023/01/01 03:27:27;;;;;;;8.97;4.63;;;13.40;99.90;;;;;;5013619;28;20196;-84
2023/01/01 03:29:58;;;;;;;7.40;4.37;;;13.50;99.90;;;;;;5014354;28;20608;-85
2023/01/01 03:35:25;;;;;;;7.60;3.90;;;13.60;99.90;;;;;;5012380;28;20721;-84
2023/01/01 03:37:55;;;;;;;7.10;3.80;;;13.60;99.90;;;;;;5026349;28;20225;-80
2023/01/01 03:40:22;;;;;;;7.60;3.90;;;13.70;99.90;;;;;;5054793;28;20215;-83
2023/01/01 03:42:54;;;;;;;6.50;3.70;;;13.80;99.90;;;;;;5036161;28;20281;-85
2023/01/01 03:45:25;;;;;;;5.93;3.67;;;13.90;99.90;;;;;;5035851;28;20198;-87
2023/01/01 03:47:53;;;;;;;7.20;3.80;;;14.00;99.90;;;;;;5036341;28;20214;-86
2023/01/01 03:50:30;;;;;;;6.57;3.87;;;14.10;99.90;;;;;;5036510;28;20636;-84
2023/01/01 03:53:30;;;;;;;7.63;4.10;;;14.20;99.90;;;;;;5036394;28;20600;-86
2023/01/01 03:56:13;;;;;;;6.60;3.87;;;14.20;99.90;;;;;;5012223;28;20208;-82
2023/01/01 03:58:48;;;;;;;7.77;4.00;;;14.20;99.90;;;;;;4979810;28;20254;-84
2023/01/01 04:01:32;;;;;;;6.80;3.80;;;14.30;99.90;;;;;;5011769;28;20597;-84
2023/01/01 04:04:00;;;;;;;6.50;3.90;;;14.20;99.90;;;;;;5011840;28;20339;-85
2023/01/01 04:06:27;;;;;;;7.20;3.60;;;14.30;99.90;;;;;;5011704;28;20208;-83
2023/01/01 04:08:57;;;;;;;5.77;3.47;;;14.30;99.90;;;;;;4995613;28;20556;-84
2023/01/01 04:14:29;;;;;;;8.57;3.60;;;14.40;99.90;;;;;;5012171;28;20264;-84
2023/01/01 04:16:57;;;;;;;6.80;3.77;;;14.40;99.90;;;;;;5011549;28;20216;-85
2023/01/01 04:19:24;;;;;;;5.83;3.20;;;14.40;99.90;;;;;;4995646;28;20588;-85
2023/01/01 04:21:51;;;;;;;6.87;3.50;;;14.50;99.90;;;;;;5011835;28;20273;-77
2023/01/01 04:24:19;;;;;;;7.80;3.70;;;14.50;99.90;;;;;;5010911;28;20228;-77
2023/01/01 04:26:46;;;;;;;5.80;3.40;;;14.50;99.90;;;;;;5011274;28;20284;-76
2023/01/01 04:29:13;;;;;;;6.33;3.03;;;14.50;99.90;;;;;;5011427;28;20240;-77
2023/01/01 04:31:39;;;;;;;6.00;3.10;;;14.50;99.90;;;;;;5025343;28;20315;-76
2023/01/01 04:34:07;;;;;;;7.07;3.43;;;14.50;99.90;;;;;;5053245;28;20554;-76
2023/01/01 04:36:34;;;;;;;5.60;3.60;;;14.50;99.90;;;;;;5052802;28;20549;-75
2023/01/01 04:39:02;;;;;;;6.77;3.30;;;14.50;99.90;;;;;;5052509;28;20307;-78
2023/01/01 04:41:29;;;;;;;5.70;3.43;;;14.50;99.90;;;;;;5051984;28;20223;-79
2023/01/01 04:43:56;;;;;;;5.23;3.23;;;14.40;99.90;;;;;;5052820;28;20198;-76
2023/01/01 04:46:24;;;;;;;6.40;3.30;;;14.40;99.90;;;;;;5052542;28;20237;-79
2023/01/01 04:48:51;;;;;;;6.13;3.37;;;14.40;99.90;;;;;;5039591;28;20600;-79
2023/01/01 04:51:20;;;;;;;4.60;3.00;;;14.40;99.90;;;;;;5039308;28;20667;-81
2023/01/01 04:53:47;;;;;;;5.37;3.00;;;14.40;99.90;;;;;;5038862;28;20221;-79
2023/01/01 04:56:17;;;;;;;6.23;3.10;;;14.40;99.90;;;;;;5039396;28;20611;-84
2023/01/01 04:58:45;;;;;;;6.07;3.20;;;14.40;99.90;;;;;;5057182;28;20222;-79
2023/01/01 05:01:23;;;;;;;5.13;3.20;;;14.40;99.90;;;;;;5057236;28;20616;-82
2023/01/01 05:03:50;;;;;;;5.07;3.07;;;14.40;99.90;;;;;;5039135;28;20202;-77
2023/01/01 05:06:17;;;;;;;3.77;2.70;;;14.40;99.90;;;;;;5056732;28;20639;-80
2023/01/01 05:08:47;;;;;;;3.90;2.83;;;14.40;99.90;;;;;;5038530;28;20224;-80
2023/01/01 05:11:18;;;;;;;4.57;2.73;;;14.40;99.90;;;;;;5038877;28;20298;-84
2023/01/01 05:13:48;;;;;;;5.53;3.00;;;14.40;99.90;;;;;;5056580;28;20276;-84
2023/01/01 05:16:20;;;;;;;8.53;2.97;;;14.40;99.90;;;;;;5039053;28;20197;-84
2023/01/01 05:18:48;;;;;;;5.43;2.87;;;14.50;99.90;;;;;;5055905;28;20289;-86
2023/01/01 05:21:23;;;;;;;4.60;2.70;;;14.50;99.90;;;;;;5038927;28;20243;-85
2023/01/01 05:23:55;;;;;;;5.70;2.70;;;14.50;99.90;;;;;;5038841;28;20289;-86
2023/01/01 05:26:24;;;;;;;4.80;2.90;;;14.50;99.90;;;;;;5039039;28;20217;-85
2023/01/01 05:28:51;;;;;;;5.70;2.73;;;14.50;99.90;;;;;;5038955;28;20199;-76
2023/01/01 05:31:21;;;;;;;5.57;2.87;;;14.50;99.90;;;;;;5038276;28;20246;-83
2023/01/01 05:33:49;;;;;;;4.80;2.93;;;14.50;99.90;;;;;;5038135;28;20203;-77
2023/01/01 05:36:18;;;;;;;4.90;2.83;;;14.50;99.90;;;;;;5056165;28;20631;-81
2023/01/01 05:38:46;;;;;;;4.60;2.67;;;14.50;99.90;;;;;;5055574;28;20692;-80
2023/01/01 05:41:14;;;;;;;5.23;3.00;;;14.60;99.90;;;;;;5038618;28;20217;-78
2023/01/01 05:43:41;;;;;;;6.27;2.80;;;14.60;99.90;;;;;;5038024;28;20199;-76
2023/01/01 05:46:19;;;;;;;6.27;2.77;;;14.50;99.90;;;;;;5056020;28;20196;-78
2023/01/01 05:48:47;;;;;;;4.70;3.00;;;14.50;99.90;;;;;;5056289;28;20274;-82
2023/01/01 05:51:17;;;;;;;4.57;2.60;;;14.60;99.90;;;;;;5038466;28;20199;-76
2023/01/01 05:53:44;;;;;;;5.63;2.80;;;14.50;99.90;;;;;;5056615;28;20198;-76
2023/01/01 05:56:13;;;;;;;5.53;2.70;;;14.50;99.90;;;;;;5058220;28;20208;-76
2023/01/01 05:58:40;;;;;;;5.73;3.33;;;14.50;99.90;;;;;;5057328;28;20208;-79
2023/01/01 06:01:16;;;;;;;6.83;2.67;;;14.50;99.90;;;;;;5057723;28;20224;-75
2023/01/01 06:03:43;;;;;;;7.37;2.90;;;14.50;99.90;;;;;;5054370;28;20632;-76
2023/01/01 06:06:13;;;;;;;4.80;2.80;;;14.50;99.90;;;;;;5046891;28;20209;-76
2023/01/01 06:08:40;;;;;;;4.67;2.87;;;14.50;99.90;;;;;;5057339;28;20209;-77
2023/01/01 06:11:10;;;;;;;6.33;3.10;;;14.50;99.90;;;;;;5074399;28;20206;-82
2023/01/01 06:13:37;;;;;;;6.00;2.80;;;14.40;99.90;;;;;;5075488;28;20194;-78
2023/01/01 06:16:05;;;;;;;5.43;2.80;;;14.40;99.90;;;;;;5057414;28;20193;-77
2023/01/01 06:18:34;;;;;;;4.00;2.60;;;14.40;99.90;;;;;;5057816;28;20199;-79
2023/01/01 06:21:11;;;;;;;6.97;3.00;;;14.40;99.90;;;;;;5041304;28;20309;-76
2023/01/01 06:23:38;;;;;;;5.83;3.20;;;14.30;99.90;;;;;;5057559;28;20290;-78
2023/01/01 06:26:11;;;;;;;4.13;2.60;;;14.30;99.90;;;;;;5075130;28;20536;-76
2023/01/01 06:28:39;;;;;;;5.50;3.00;;;14.30;99.90;;;;;;5057750;28;20289;-78
2023/01/01 06:31:09;;;;;;;4.93;2.70;;;14.20;99.90;;;;;;5075318;28;20239;-77
2023/01/01 06:33:37;;;;;;;4.23;2.90;;;14.20;99.90;;;;;;5074980;28;20645;-81
2023/01/01 06:36:06;;;;;;;6.57;2.90;;;14.10;99.90;;;;;;5057236;28;20190;-78
2023/01/01 06:38:35;;;;;;;6.13;2.90;;;14.10;99.90;;;;;;5041219;28;20293;-76
2023/01/01 06:41:04;;;;;;;4.80;2.63;;;14.10;99.90;;;;;;5033924;28;20221;-79
2023/01/01 06:43:33;;;;;;;6.70;3.10;;;14.10;99.90;;;;;;5034279;28;20270;-85
2023/01/01 06:46:06;;;;;;;7.00;3.10;;;14.10;99.90;;;;;;5033806;28;20249;-76
2023/01/01 06:48:35;;;;;;;4.33;2.57;;;14.10;99.90;;;;;;5035261;28;20199;-79
2023/01/01 06:51:11;;;;;;;5.63;2.87;;;14.00;99.90;;;;;;5034466;28;20199;-80
2023/01/01 06:53:38;;;;;;;5.57;2.80;;;14.00;99.90;;;;;;5033576;28;20199;-80
2023/01/01 06:56:06;;;;;;;5.50;2.90;;;14.00;99.90;;;;;;5017452;28;20204;-82
2023/01/01 06:58:33;;;;;;;4.27;2.90;;;14.00;99.90;;;;;;5034490;28;20206;-82
2023/01/01 07:01:17;;;;;;;6.07;3.13;;;13.90;99.90;;;;;;5033925;28;20219;-82
2023/01/01 07:03:59;;;;;;;6.53;3.00;;;14.00;99.90;;;;;;5017001;28;20200;-82
2023/01/01 07:06:28;;;;;;;5.30;2.93;;;14.00;99.90;;;;;;5034658;28;20261;-80
2023/01/01 07:08:55;;;;;;;5.87;2.80;;;14.00;99.90;;;;;;5032617;28;20200;-81
2023/01/01 07:11:22;;;;;;;5.43;2.90;;;14.00;99.90;;;;;;5034741;28;20219;-82
2023/01/01 07:13:49;;;;;;;6.83;3.03;;;14.00;99.90;;;;;;5034744;28;20529;-82
2023/01/01 07:16:16;;;;;;;6.13;3.07;;;14.00;99.90;;;;;;5034499;28;20183;-79
2023/01/01 07:18:44;;;;;;;6.20;2.87;;;14.00;99.90;;;;;;5034539;28;20195;-81
2023/01/01 07:21:20;;;;;;;5.83;2.80;;;14.00;99.90;;;;;;5033887;28;20253;-82
2023/01/01 07:23:55;;;;;;;6.07;3.00;;;14.00;99.90;;;;;;5033352;28;20624;-80
2023/01/01 07:26:24;;;;;;;3.83;2.50;;;14.20;99.90;;;;;;5033159;28;20669;-82
2023/01/01 07:28:51;;;;;;;6.80;2.83;;;14.20;99.90;;;;;;5033215;28;20638;-82
2023/01/01 07:31:18;;;;;;;5.33;2.70;;;14.20;99.90;;;;;;5033103;28;20302;-80
2023/01/01 07:33:45;;;;;;;6.07;2.80;;;14.30;99.90;;;;;;5032838;28;20210;-80
2023/01/01 07:36:12;;;;;;;4.57;2.57;;;14.30;99.90;;;;;;5032797;28;20711;-80
2023/01/01 07:38:39;;;;;;;5.60;2.50;;;14.40;99.90;;;;;;5032682;28;20251;-81
2023/01/01 07:41:07;;;;;;;6.57;2.80;;;14.40;99.90;;;;;;5032755;28;20242;-80
2023/01/01 07:43:34;;;;;;;8.43;3.20;;;14.50;99.90;;;;;;5032832;28;20191;-80
2023/01/01 07:46:01;;;;;;;8.47;2.50;;;14.50;99.90;;;;;;5032839;28;20653;-76
2023/01/01 07:48:29;;;;;;;5.27;2.70;;;14.50;99.90;;;;;;5032906;28;20195;-80
2023/01/01 07:51:03;;;;;;;5.47;2.50;;;14.60;99.90;;;;;;5033643;28;20198;-77
2023/01/01 07:53:30;;;;;;;5.83;2.60;;;14.70;99.90;;;;;;5032792;28;20225;-76
2023/01/01 07:55:57;;;;;;;5.03;2.60;;;14.80;99.90;;;;;;5033288;28;20301;-79
2023/01/01 07:58:24;;;;;;;5.47;2.70;;;14.90;99.90;;;;;;5033585;28;20267;-78
2023/01/01 08:00:51;;;;;;;6.03;2.97;;;14.90;99.90;;;;;;5032678;28;20306;-80
2023/01/01 08:03:18;;;;;;;6.50;2.77;;;15.00;99.90;;;;;;5032330;28;20191;-78
2023/01/01 08:05:45;;;;;;;6.93;2.80;;;15.10;99.90;;;;;;5031967;28;20184;-77
2023/01/01 08:08:14;;;;;;;7.47;2.57;;;15.20;99.90;;;;;;5031915;28;20234;-76
2023/01/01 08:10:41;;;;;;;7.97;2.60;;;15.40;99.90;;;;;;5031954;28;20656;-80
2023/01/01 08:13:08;;;;;;;5.13;2.40;;;15.50;99.90;;;;;;5033608;28;20272;-77
2023/01/01 08:15:35;;;;;;;4.63;2.60;;;15.60;99.90;;;;;;5033548;28;20277;-79
2023/01/01 08:18:04;;;;;;;6.00;2.50;;;15.70;99.90;;;;;;5032186;28;20191;-79
2023/01/01 08:20:33;;;;;;;7.20;2.87;;;15.70;99.90;;;;;;5031833;28;20223;-76
2023/01/01 08:23:00;;;;;;;7.83;2.70;;;15.70;99.90;;;;;;5031871;28;20483;-80
2023/01/01 08:25:34;;;;;;;7.50;2.60;;;15.80;99.90;;;;;;5032099;28;20203;-80
2023/01/01 08:28:01;;;;;;;8.27;2.80;;;15.90;99.90;;;;;;5031904;28;20231;-79
2023/01/01 08:30:28;;;;;;;5.17;2.40;;;15.90;99.90;;;;;;5032239;28;20196;-78
2023/01/01 08:32:55;;;;;;;6.03;2.67;;;16.00;99.90;;;;;;5032019;28;20313;-80
2023/01/01 08:35:22;;;;;;;7.63;2.43;;;16.10;99.90;;;;;;5027972;28;20199;-79
2023/01/01 08:37:49;;;;;;;7.73;2.50;;;16.10;99.90;;;;;;5032100;28;20273;-78
2023/01/01 08:40:17;;;;;;;6.87;2.60;;;16.20;99.90;;;;;;5031750;28;20217;-81
2023/01/01 08:42:44;;;;;;;7.47;3.10;;;16.20;99.90;;;;;;5031532;28;20251;-82
2023/01/01 08:45:11;;;;;;;6.10;2.60;;;16.20;99.90;;;;;;5048580;28;20261;-82
2023/01/01 08:47:37;;;;;;;7.73;3.10;;;16.10;99.90;;;;;;5031935;28;20209;-82
2023/01/01 08:50:05;;;;;;;6.27;2.50;;;16.00;99.90;;;;;;5023621;28;20234;-82
2023/01/01 08:52:32;;;;;;;5.30;2.70;;;16.00;99.90;;;;;;5033563;28;20284;-75
2023/01/01 08:54:59;;;;;;;4.77;2.60;;;15.90;99.90;;;;;;5024099;28;20210;-79
2023/01/01 08:57:30;;;;;;;5.13;2.60;;;15.90;99.90;;;;;;5015381;28;20699;-80
2023/01/01 08:59:57;;;;;;;7.17;2.13;;;15.90;99.90;;;;;;5011215;28;20719;-84
2023/01/01 09:02:24;;;;;;;6.53;2.63;;;15.90;99.90;;;;;;5011262;28;20318;-74
2023/01/01 09:04:51;;;;;;;8.37;2.80;;;15.90;99.90;;;;;;5020073;28;20637;-77
2023/01/01 09:07:18;;;;;;;7.70;2.70;;;16.00;99.90;;;;;;5041409;28;20257;-79
2023/01/01 09:09:45;;;;;;;8.30;2.30;;;16.00;99.90;;;;;;5031309;28;20191;-77
2023/01/01 09:12:15;;;;;;;5.43;2.33;;;16.10;99.90;;;;;;5015202;28;20637;-78
2023/01/01 09:14:45;;;;;;;6.30;2.53;;;16.20;99.90;;;;;;5027999;28;20189;-79
2023/01/01 09:17:12;;;;;;;5.87;2.47;;;16.20;99.90;;;;;;5011859;28;20196;-78
2023/01/01 09:19:39;;;;;;;6.17;2.47;;;16.30;99.90;;;;;;5011350;28;20242;-76
2023/01/01 09:22:10;;;;;;;8.47;2.40;;;16.50;99.90;;;;;;5016753;28;20579;-75
2023/01/01 09:24:37;;;;;;;7.80;2.77;;;16.50;99.90;;;;;;5034344;28;20219;-78
2023/01/01 09:27:05;;;;;;;7.50;2.37;;;16.60;99.90;;;;;;5026246;28;20204;-84
2023/01/01 09:29:32;;;;;;;5.57;2.40;;;16.70;99.90;;;;;;5012050;28;20189;-79
2023/01/01 09:31:59;;;;;;;9.97;2.33;;;16.70;99.90;;;;;;5013323;28;20229;-81
2023/01/01 09:34:26;;;;;;;7.17;2.63;;;16.80;99.90;;;;;;5018340;28;20223;-82
2023/01/01 09:36:53;;;;;;;7.27;2.70;;;16.80;99.90;;;;;;5039626;28;20532;-81
2023/01/01 09:39:22;;;;;;;9.00;2.50;;;16.90;99.90;;;;;;5060924;28;20334;-81
2023/01/01 09:41:52;;;;;;;8.33;2.50;;;17.00;99.90;;;;;;5076546;28;20221;-79
2023/01/01 09:44:43;;;;;;;8.50;2.77;;;17.20;99.90;;;;;;5058471;28;20218;-80
2023/01/01 09:47:31;;;;;;;6.00;2.27;;;17.30;99.90;;;;;;5076425;28;20212;-85
2023/01/01 09:50:07;;;;;;;6.87;2.53;;;17.40;99.90;;;;;;5058271;28;20196;-83
2023/01/01 09:52:49;;;;;;;9.37;2.63;;;17.50;99.90;;;;;;5074824;28;20272;-86
2023/01/01 09:55:50;;;;;;;8.60;2.20;;;17.60;99.90;;;;;;5074585;28;20201;-85
2023/01/01 09:58:47;;;;;;;7.80;2.30;;;17.70;99.90;;;;;;5038175;28;20194;-88
2023/01/01 10:01:33;;;;;;;8.77;2.50;;;17.80;99.90;;;;;;4994623;28;20247;-80
2023/01/01 10:04:20;;;;;;;10.30;2.47;;;17.90;99.90;;;;;;4994198;28;20197;-81
2023/01/01 10:07:10;;;;;;;8.93;2.50;;;18.00;99.90;;;;;;4974202;28;20201;-82
2023/01/01 10:09:54;;;;;;;6.77;2.20;;;18.00;99.90;;;;;;4992167;28;20263;-81
2023/01/01 10:12:43;;;;;;;11.23;3.00;;;18.10;99.90;;;;;;4993656;28;20644;-76
2023/01/01 10:15:24;;;;;;;5.60;2.00;;;18.20;99.90;;;;;;4978236;28;20314;-87
2023/01/01 10:17:58;;;;;;;7.17;2.53;;;18.30;99.90;;;;;;4994214;28;20654;-81
2023/01/01 10:20:43;;;;;;;5.53;2.17;;;18.30;99.90;;;;;;4994200;28;20637;-75
2023/01/01 10:23:21;;;;;;;6.87;2.50;;;18.30;99.90;;;;;;4994119;28;20295;-79
2023/01/01 10:25:51;;;;;;;10.63;2.77;;;18.20;99.90;;;;;;4977098;28;20218;-76
2023/01/01 10:28:32;;;;;;;7.67;2.70;;;18.20;99.90;;;;;;4994253;28;20251;-81
2023/01/01 10:31:24;;;;;;;6.60;2.30;;;18.20;99.90;;;;;;4988188;28;20615;-80
2023/01/01 10:33:51;;;;;;;9.63;2.60;;;18.00;99.90;;;;;;4960413;28;20201;-79
2023/01/01 10:36:19;;;;;;;6.47;2.30;;;17.90;99.90;;;;;;4993736;28;20200;-80
2023/01/01 10:38:48;;;;;;;8.27;2.40;;;17.80;99.90;;;;;;5056183;28;20586;-83
2023/01/01 10:41:16;;;;;;;8.33;2.40;;;17.70;99.90;;;;;;5062162;28;20624;-85
2023/01/01 10:43:47;;;;;;;10.03;2.80;;;17.70;99.90;;;;;;5064020;28;20647;-76
2023/01/01 10:46:21;;;;;;;7.90;2.60;;;17.70;99.90;;;;;;5060739;28;20203;-81
2023/01/01 10:49:09;;;;;;;11.27;2.57;;;17.80;99.90;;;;;;5053861;28;20195;-84
2023/01/01 10:51:42;;;;;;;12.17;2.90;;;17.80;99.90;;;;;;5053508;28;20293;-80
2023/01/01 10:54:27;;;;;;;9.03;2.40;;;17.80;99.90;;;;;;5054914;28;20278;-80
2023/01/01 10:56:58;;;;;;;9.40;2.70;;;17.80;99.90;;;;;;5053902;28;20205;-83
2023/01/01 10:59:34;;;;;;;11.80;2.83;;;17.70;99.90;;;;;;5054791;28;20659;-80
2023/01/01 11:02:18;;;;;;;8.07;2.70;;;17.80;99.90;;;;;;5043422;28;20229;-75
2023/01/01 11:04:46;;;;;;;8.93;2.50;;;17.90;99.90;;;;;;5056291;28;20287;-74
2023/01/01 11:07:28;;;;;;;6.83;2.40;;;17.90;99.90;;;;;;5055895;28;20247;-74
2023/01/01 11:10:05;;;;;;;10.67;2.60;;;17.90;99.90;;;;;;5056388;28;20210;-73
2023/01/01 11:12:37;;;;;;;10.37;2.67;;;17.90;99.90;;;;;;5056124;28;20211;-77
2023/01/01 11:15:38;;;;;;;8.13;2.40;;;17.90;99.90;;;;;;5056273;28;20236;-75
2023/01/01 11:18:24;;;;;;;12.87;3.13;;;18.00;99.90;;;;;;5074350;28;20194;-74
2023/01/01 11:20:53;;;;;;;8.53;2.43;;;18.00;99.90;;;;;;5056445;28;20269;-75
2023/01/01 11:23:29;;;;;;;8.37;2.33;;;18.00;99.90;;;;;;5045640;28;21018;-76
2023/01/01 11:26:11;;;;;;;11.13;2.60;;;18.10;99.90;;;;;;5060981;28;20273;-77
2023/01/01 11:28:39;;;;;;;9.60;2.50;;;18.20;99.90;;;;;;5039877;28;20252;-76
2023/01/01 11:31:16;;;;;;;11.37;2.67;;;18.20;99.90;;;;;;5044498;28;20249;-80
2023/01/01 11:33:51;;;;;;;7.53;2.40;;;18.30;99.90;;;;;;5042303;28;20202;-79
2023/01/01 11:36:24;;;;;;;8.53;2.60;;;18.30;99.90;;;;;;5044198;28;20659;-78
2023/01/01 11:39:05;;;;;;;8.43;2.60;;;18.30;99.90;;;;;;5035715;28;20229;-81
2023/01/01 11:41:46;;;;;;;4.93;2.03;;;18.40;99.90;;;;;;5052684;28;20314;-74
2023/01/01 11:44:41;;;;;;;8.87;2.60;;;18.50;99.90;;;;;;5053603;28;20191;-78
2023/01/01 11:47:38;;;;;;;7.77;2.33;;;18.70;99.90;;;;;;5036100;28;20289;-82
2023/01/01 11:50:17;;;;;;;10.77;2.50;;;18.90;99.90;;;;;;5035861;28;20234;-80
2023/01/01 11:52:49;;;;;;;9.93;2.40;;;19.30;99.90;;;;;;5035887;28;20195;-81
2023/01/01 11:55:28;;;;;;;5.77;2.33;;;19.50;99.90;;;;;;5053118;28;20187;-81
2023/01/01 11:57:58;;;;;;;9.30;2.40;;;19.70;99.90;;;;;;5054035;28;20282;-80
2023/01/01 12:00:28;;;;;;;7.77;2.57;;;19.80;99.90;;;;;;5035835;28;20199;-81
2023/01/01 12:03:10;;;;;;;8.10;2.73;;;19.80;99.40;;;;;;5052611;28;20227;-82
2023/01/01 12:05:49;;;;;;;7.77;2.30;;;19.50;99.60;;;;;;5035686;28;20198;-83
2023/01/01 12:08:29;;;;;;;8.60;2.70;;;19.40;99.90;;;;;;5058742;28;20194;-83
2023/01/01 12:11:19;;;;;;;7.40;2.40;;;19.10;99.90;;;;;;5055531;28;20225;-81
2023/01/01 12:13:59;;;;;;;8.83;2.30;;;18.90;99.90;;;;;;5073531;28;20204;-76
2023/01/01 12:16:44;;;;;;;7.73;2.87;;;18.70;99.90;;;;;;5073264;28;20194;-78
2023/01/01 12:19:21;;;;;;;7.77;2.53;;;18.60;99.90;;;;;;5055527;28;20201;-81
2023/01/01 12:21:53;;;;;;;6.27;2.70;;;18.60;99.90;;;;;;5039102;28;20228;-79
2023/01/01 12:24:20;;;;;;;10.77;2.90;;;18.50;99.90;;;;;;5054747;28;20186;-80
2023/01/01 12:27:24;;;;;;;11.83;2.73;;;18.50;99.90;;;;;;5038748;28;20194;-81
2023/01/01 12:30:12;;;;;;;8.47;2.47;;;18.50;99.90;;;;;;4940275;28;20308;-78
2023/01/01 12:33:36;;;;;;;7.57;2.50;;;18.40;99.90;;;;;;4972288;28;20225;-80
2023/01/01 12:36:29;;;;;;;8.10;2.30;;;18.40;99.90;;;;;;4956057;28;20220;-78
2023/01/01 12:39:20;;;;;;;12.10;2.83;;;18.50;99.90;;;;;;4971833;28;20221;-77
2023/01/01 12:42:16;;;;;;;9.17;2.63;;;18.40;99.90;;;;;;4955799;28;20222;-79
2023/01/01 12:45:44;;;;;;;7.80;2.63;;;18.40;99.90;;;;;;4917237;29;20203;-77
2023/01/01 12:48:34;;;;;;;7.73;2.83;;;18.30;99.90;;;;;;4864586;29;20192;-77
2023/01/01 12:51:25;;;;;;;7.33;2.30;;;18.30;99.90;;;;;;4880138;29;20271;-78
2023/01/01 12:53:59;;;;;;;7.87;2.57;;;18.30;99.90;;;;;;4864716;29;20286;-81
2023/01/01 12:56:52;;;;;;;9.80;2.63;;;18.30;99.90;;;;;;4875802;29;20209;-77
2023/01/01 12:59:27;;;;;;;9.17;2.60;;;18.20;99.90;;;;;;4863027;29;20203;-80
2023/01/01 13:01:56;;;;;;;8.07;2.33;;;18.20;99.90;;;;;;4873010;29;20216;-80
2023/01/01 13:04:22;;;;;;;9.47;2.43;;;18.20;99.90;;;;;;4903654;29;20232;-83
2023/01/01 13:07:06;;;;;;;6.47;2.70;;;18.10;99.90;;;;;;4929928;29;20284;-79
2023/01/01 13:09:47;;;;;;;6.73;2.77;;;18.00;99.90;;;;;;4946080;28;20213;-85
2023/01/01 13:12:17;;;;;;;6.63;2.50;;;17.90;99.90;;;;;;4944269;28;20288;-90
2023/01/01 13:14:48;;;;;;;8.47;2.90;;;17.90;99.90;;;;;;4951707;28;20202;-83
2023/01/01 13:17:21;;;;;;;7.90;2.60;;;17.90;99.90;;;;;;4966453;28;20229;-85
2023/01/01 13:19:56;;;;;;;6.47;2.53;;;17.90;99.90;;;;;;4955085;28;20293;-82
2023/01/01 13:22:26;;;;;;;9.37;2.80;;;17.90;99.90;;;;;;4991423;28;20226;-80
2023/01/01 13:25:09;;;;;;;8.07;2.67;;;17.80;99.90;;;;;;5017805;28;20195;-79
2023/01/01 13:27:55;;;;;;;12.93;2.80;;;17.80;99.90;;;;;;5050287;28;20269;-78
2023/01/01 13:30:43;;;;;;;8.40;2.80;;;17.80;99.90;;;;;;5060729;28;20197;-83
2023/01/01 13:33:16;;;;;;;9.40;2.90;;;17.70;99.90;;;;;;5048361;28;20195;-87